createdAt,value
2018-01-04T00:02:23.474Z,31.30
2018-01-04T00:04:50.989Z,32.03
2018-01-04T00:07:18.531Z,29.27
2018-01-04T00:09:46.822Z,22.63
2018-01-04T00:12:14.872Z,28.53
2018-01-04T00:14:43.359Z,29.43
2018-01-04T00:17:11.878Z,31.67
2018-01-04T00:19:39.656Z,27.33
2018-01-04T00:22:07.361Z,29.97
2018-01-04T00:24:35.052Z,25.87
2018-01-04T00:27:03.450Z,31.27
2018-01-04T00:29:32.237Z,26.87
2018-01-04T00:32:00.655Z,25.60
2018-01-04T00:34:29.404Z,36.17
2018-01-04T00:36:57.012Z,29.20
2018-01-04T00:39:25.417Z,29.80
2018-01-04T00:41:53.706Z,32.17
2018-01-04T00:44:21.241Z,44.97
2018-01-04T00:46:49.536Z,27.10
2018-01-04T00:49:17.548Z,26.93
2018-01-04T00:51:45.076Z,31.83
2018-01-04T00:54:12.718Z,24.60
2018-01-04T00:56:40.539Z,32.30
2018-01-04T00:59:08.616Z,26.07
2018-01-04T01:01:36.701Z,36.77
2018-01-04T01:04:05.048Z,28.77
2018-01-04T01:06:34.182Z,33.27
2018-01-04T01:09:02.900Z,24.37
2018-01-04T01:11:33.169Z,28.60
2018-01-04T01:14:02.110Z,27.57
2018-01-04T01:16:30.622Z,29.97
2018-01-04T01:18:59.718Z,20.07
2018-01-04T01:21:27.301Z,27.10
2018-01-04T01:23:54.826Z,38.60
2018-01-04T01:26:22.368Z,34.07
2018-01-04T01:28:50.645Z,32.23
2018-01-04T01:31:18.930Z,30.60
2018-01-04T01:33:46.520Z,34.60
2018-01-04T01:36:14.164Z,30.37
2018-01-04T01:38:41.988Z,31.60
2018-01-04T01:41:10.018Z,34.87
2018-01-04T01:43:37.779Z,29.00
2018-01-04T01:46:05.738Z,26.53
2018-01-04T01:48:34.241Z,31.90
2018-01-04T01:51:04.104Z,30.33
2018-01-04T01:53:33.869Z,30.90
2018-01-04T01:56:02.358Z,32.07
2018-01-04T01:58:30.512Z,29.10
2018-01-04T02:00:58.084Z,34.37
2018-01-04T02:03:25.614Z,35.50
2018-01-04T02:05:53.141Z,27.73
2018-01-04T02:08:21.445Z,27.30
2018-01-04T02:10:49.825Z,26.37
2018-01-04T02:13:17.380Z,33.40
2018-01-04T02:15:45.761Z,35.53
2018-01-04T02:18:25.245Z,34.50
2018-01-04T02:23:54.547Z,29.70
2018-01-04T02:26:35.397Z,32.77
2018-01-04T02:29:15.301Z,34.80
2018-01-04T02:31:54.837Z,23.60
2018-01-04T02:37:27.992Z,29.93
2018-01-04T02:40:08.691Z,32.53
2018-01-04T02:42:48.173Z,25.30
2018-01-04T02:45:27.546Z,44.03
2018-01-04T02:47:55.072Z,40.03
2018-01-04T02:50:22.600Z,37.50
2018-01-04T02:52:50.169Z,37.90
2018-01-04T02:55:17.717Z,31.97
2018-01-04T02:57:45.342Z,28.80
2018-01-04T03:00:13.005Z,32.90
2018-01-04T03:02:40.794Z,32.73
2018-01-04T03:05:09.330Z,38.20
2018-01-04T03:07:38.446Z,28.13
2018-01-04T03:10:06.335Z,31.50
2018-01-04T03:12:34.882Z,36.77
2018-01-04T03:15:04.537Z,28.93
2018-01-04T03:17:33.011Z,30.00
2018-01-04T03:20:01.691Z,36.73
2018-01-04T03:22:36.430Z,37.03
2018-01-04T03:25:10.235Z,34.43
2018-01-04T03:27:43.935Z,38.90
2018-01-04T03:30:17.106Z,39.00
2018-01-04T03:32:51.039Z,34.23
2018-01-04T03:35:24.139Z,42.87
2018-01-04T03:37:57.317Z,40.20
2018-01-04T03:40:30.925Z,46.40
2018-01-04T03:43:05.447Z,29.67
2018-01-04T03:45:39.090Z,29.13
2018-01-04T03:48:13.473Z,31.07
2018-01-04T03:50:46.634Z,32.53
2018-01-04T03:53:20.542Z,25.20
2018-01-04T03:55:54.384Z,30.10
2018-01-04T03:58:21.921Z,29.67
2018-01-04T04:00:55.169Z,29.63
2018-01-04T04:03:22.717Z,28.87
2018-01-04T04:05:55.997Z,45.17
2018-01-04T04:08:30.099Z,30.63
2018-01-04T04:10:57.709Z,30.23
2018-01-04T04:13:25.237Z,28.80
2018-01-04T04:15:52.786Z,28.10
2018-01-04T04:18:21.078Z,24.23
2018-01-04T04:20:48.706Z,26.07
2018-01-04T04:23:16.285Z,28.80
2018-01-04T04:25:44.049Z,37.13
2018-01-04T04:28:11.824Z,24.37
2018-01-04T04:30:40.117Z,21.00
2018-01-04T04:33:08.577Z,27.37
2018-01-04T04:35:36.473Z,21.87
2018-01-04T04:38:04.861Z,27.37
2018-01-04T04:40:33.847Z,27.50
2018-01-04T04:43:01.987Z,33.93
2018-01-04T04:45:30.772Z,27.87
2018-01-04T04:48:00.275Z,20.50
2018-01-04T04:50:27.796Z,23.90
2018-01-04T04:52:55.356Z,21.37
2018-01-04T04:55:23.642Z,32.10
2018-01-04T04:57:51.918Z,25.33
2018-01-04T05:00:20.230Z,25.13
2018-01-04T05:02:47.753Z,21.10
2018-01-04T05:05:16.199Z,21.73
2018-01-04T05:07:44.180Z,23.07
2018-01-04T05:10:12.841Z,23.13
2018-01-04T05:12:40.894Z,20.83
2018-01-04T05:15:09.069Z,20.03
2018-01-04T05:17:36.942Z,24.93
2018-01-04T05:20:05.677Z,19.03
2018-01-04T05:22:34.458Z,23.73
2018-01-04T05:25:03.111Z,27.10
2018-01-04T05:27:32.168Z,26.93
2018-01-04T05:30:01.698Z,16.90
2018-01-04T05:32:31.000Z,20.50
2018-01-04T05:34:59.993Z,16.70
2018-01-04T05:37:28.582Z,21.20
2018-01-04T05:39:57.045Z,20.93
2018-01-04T05:42:24.562Z,20.47
2018-01-04T05:44:52.104Z,20.53
2018-01-04T05:47:19.859Z,18.57
2018-01-04T05:49:48.527Z,21.60
2018-01-04T05:52:16.082Z,26.27
2018-01-04T05:54:45.128Z,13.90
2018-01-04T05:57:13.409Z,17.17
2018-01-04T05:59:41.975Z,18.50
2018-01-04T06:02:11.201Z,21.10
2018-01-04T06:04:39.726Z,18.47
2018-01-04T06:07:08.328Z,15.53
2018-01-04T06:09:37.893Z,17.33
2018-01-04T06:12:07.680Z,18.20
2018-01-04T06:14:38.584Z,20.40
2018-01-04T06:17:08.449Z,15.77
2018-01-04T06:19:37.485Z,22.13
2018-01-04T06:22:06.837Z,14.93
2018-01-04T06:24:37.002Z,25.03
2018-01-04T06:27:05.893Z,15.43
2018-01-04T06:29:37.692Z,16.77
2018-01-04T06:32:07.474Z,10.63
2018-01-04T06:34:42.312Z,14.57
2018-01-04T06:37:11.866Z,14.50
2018-01-04T06:39:41.787Z,10.77
2018-01-04T06:42:10.615Z,13.30
2018-01-04T06:44:39.980Z,11.33
2018-01-04T06:47:08.999Z,15.07
2018-01-04T06:49:37.790Z,12.00
2018-01-04T06:52:06.475Z,15.23
2018-01-04T06:54:35.449Z,12.90
2018-01-04T06:57:04.488Z,15.07
2018-01-04T06:59:32.991Z,15.20
2018-01-04T07:02:01.556Z,9.87
2018-01-04T07:04:30.244Z,13.10
2018-01-04T07:06:57.978Z,11.93
2018-01-04T07:09:26.136Z,10.73
2018-01-04T07:11:53.665Z,10.77
2018-01-04T07:14:22.732Z,7.90
2018-01-04T07:16:50.268Z,8.03
2018-01-04T07:19:17.778Z,8.27
2018-01-04T07:21:45.942Z,8.80
2018-01-04T07:24:14.062Z,5.47
2018-01-04T07:26:41.586Z,6.13
2018-01-04T07:29:09.512Z,7.77
2018-01-04T07:31:37.601Z,4.83
2018-01-04T07:34:06.693Z,5.53
2018-01-04T07:36:34.477Z,5.57
2018-01-04T07:39:03.227Z,4.63
2018-01-04T07:41:31.762Z,3.07
2018-01-04T07:43:59.993Z,6.83
2018-01-04T07:46:28.568Z,4.27
2018-01-04T07:48:57.129Z,5.87
2018-01-04T07:51:25.651Z,7.10
2018-01-04T07:53:53.989Z,4.93
2018-01-04T07:56:22.288Z,4.27
2018-01-04T07:58:50.637Z,7.07
2018-01-04T08:01:18.974Z,3.83
2018-01-04T08:03:46.578Z,4.03
2018-01-04T08:06:14.936Z,4.77
2018-01-04T08:08:43.220Z,7.40
2018-01-04T08:11:11.505Z,3.87
2018-01-04T08:13:40.022Z,8.67
2018-01-04T08:16:07.890Z,8.80
2018-01-04T08:18:36.995Z,2.57
2018-01-04T08:21:05.570Z,5.03
2018-01-04T08:23:34.219Z,3.90
2018-01-04T08:26:01.940Z,4.50
2018-01-04T08:28:29.781Z,4.50
2018-01-04T08:30:57.367Z,2.60
2018-01-04T08:33:24.914Z,2.13
2018-01-04T08:35:52.991Z,3.50
2018-01-04T08:38:20.575Z,5.17
2018-01-04T08:40:49.715Z,4.53
2018-01-04T08:43:18.021Z,8.53
2018-01-04T08:45:45.533Z,5.57
2018-01-04T08:48:13.127Z,4.00
2018-01-04T08:50:40.869Z,2.40
2018-01-04T08:53:08.449Z,5.67
2018-01-04T08:55:36.264Z,6.47
2018-01-04T08:58:04.010Z,4.80
2018-01-04T09:00:31.617Z,2.20
2018-01-04T09:03:00.234Z,2.57
2018-01-04T09:05:28.000Z,5.10
2018-01-04T09:07:55.569Z,3.17
2018-01-04T09:10:23.084Z,4.73
2018-01-04T09:12:51.361Z,3.23
2018-01-04T09:15:19.775Z,5.23
2018-01-04T09:17:47.301Z,5.60
2018-01-04T09:20:15.721Z,2.80
2018-01-04T09:22:43.479Z,2.80
2018-01-04T09:25:11.176Z,2.60
2018-01-04T09:27:39.726Z,3.13
2018-01-04T09:30:07.596Z,2.07
2018-01-04T09:32:36.378Z,3.20
2018-01-04T09:35:04.172Z,3.63
2018-01-04T09:37:33.549Z,4.60
2018-01-04T09:40:01.282Z,4.83
2018-01-04T09:42:28.829Z,6.93
2018-01-04T09:44:56.459Z,6.70
2018-01-04T09:47:23.971Z,9.47
2018-01-04T09:49:52.265Z,5.40
2018-01-04T09:52:19.934Z,3.00
2018-01-04T09:54:47.448Z,3.37
2018-01-04T09:57:14.993Z,3.83
2018-01-04T09:59:42.545Z,4.30
2018-01-04T10:02:10.090Z,5.10
2018-01-04T10:04:37.883Z,4.60
2018-01-04T10:07:05.581Z,4.37
2018-01-04T10:09:33.585Z,3.10
2018-01-04T10:12:02.677Z,5.07
2018-01-04T10:14:30.636Z,6.43
2018-01-04T10:16:59.143Z,3.93
2018-01-04T10:19:26.685Z,5.50
2018-01-04T10:21:54.547Z,17.83
2018-01-04T10:24:22.096Z,9.40
2018-01-04T10:26:50.474Z,11.70
2018-01-04T10:29:18.007Z,7.37
2018-01-04T10:31:46.309Z,3.37
2018-01-04T10:34:13.983Z,1.97
2018-01-04T10:36:41.562Z,7.23
2018-01-04T10:39:09.107Z,6.13
2018-01-04T10:41:36.743Z,6.67
2018-01-04T10:44:04.553Z,3.37
2018-01-04T10:46:32.251Z,3.73
2018-01-04T10:48:59.966Z,4.80
2018-01-04T10:51:27.764Z,3.53
2018-01-04T10:53:56.164Z,4.67
2018-01-04T10:56:24.481Z,3.70
2018-01-04T10:58:52.024Z,6.60
2018-01-04T11:01:19.589Z,5.97
2018-01-04T11:03:47.186Z,4.30
2018-01-04T11:06:17.904Z,4.77
2018-01-04T11:08:45.954Z,3.80
2018-01-04T11:11:14.617Z,4.80
2018-01-04T11:13:42.902Z,2.30
2018-01-04T11:16:11.207Z,2.97
2018-01-04T11:18:38.760Z,6.57
2018-01-04T11:21:06.406Z,3.70
2018-01-04T11:23:34.126Z,4.77
2018-01-04T11:26:01.842Z,5.87
2018-01-04T11:28:29.724Z,3.20
2018-01-04T11:30:57.302Z,3.87
2018-01-04T11:33:24.825Z,5.43
2018-01-04T11:35:52.362Z,6.23
2018-01-04T11:38:19.892Z,4.23
2018-01-04T11:40:47.441Z,3.70
2018-01-04T11:43:15.561Z,2.10
2018-01-04T11:45:43.417Z,6.43
2018-01-04T11:48:10.979Z,3.63
2018-01-04T11:50:38.889Z,5.20
2018-01-04T11:53:06.758Z,4.03
2018-01-04T11:55:34.933Z,1.70
2018-01-04T11:58:02.876Z,4.03
2018-01-04T12:00:30.736Z,2.60
2018-01-04T12:02:58.299Z,4.93
2018-01-04T12:05:26.004Z,5.10
2018-01-04T12:07:53.751Z,6.57
2018-01-04T12:10:21.419Z,4.80
2018-01-04T12:12:49.005Z,4.83
2018-01-04T12:15:16.532Z,2.63
2018-01-04T12:17:44.090Z,3.47
2018-01-04T12:20:11.991Z,2.60
2018-01-04T12:22:39.690Z,4.30
2018-01-04T12:25:08.417Z,3.23
2018-01-04T12:27:36.022Z,5.27
2018-01-04T12:30:03.779Z,1.73
2018-01-04T12:32:31.507Z,6.13
2018-01-04T12:34:59.313Z,7.70
2018-01-04T12:37:26.899Z,4.70
2018-01-04T12:39:55.235Z,1.07
2018-01-04T12:42:22.799Z,3.03
2018-01-04T12:44:50.321Z,5.03
2018-01-04T12:47:17.836Z,3.67
2018-01-04T12:49:46.065Z,3.83
2018-01-04T12:52:13.684Z,5.83
2018-01-04T12:54:42.555Z,1.70
2018-01-04T12:57:11.470Z,2.20
2018-01-04T12:59:39.380Z,1.20
2018-01-04T13:02:07.758Z,1.33
2018-01-04T13:04:36.045Z,2.20
2018-01-04T13:07:05.337Z,1.50
2018-01-04T13:09:34.200Z,1.43
2018-01-04T13:12:02.416Z,1.37
2018-01-04T13:14:31.045Z,0.73
2018-01-04T13:16:59.088Z,0.83
2018-01-04T13:19:27.549Z,0.90
2018-01-04T13:21:55.072Z,1.00
2018-01-04T13:24:23.374Z,1.57
2018-01-04T13:26:50.913Z,0.83
2018-01-04T13:29:19.200Z,1.57
2018-01-04T13:31:46.755Z,1.50
2018-01-04T13:34:14.290Z,1.30
2018-01-04T13:36:42.929Z,1.13
2018-01-04T13:39:10.570Z,1.00
2018-01-04T13:41:38.547Z,1.17
2018-01-04T13:44:06.720Z,2.30
2018-01-04T13:46:36.114Z,0.80
2018-01-04T13:49:04.120Z,1.20
2018-01-04T13:51:32.884Z,1.37
2018-01-04T13:54:01.981Z,1.30
2018-01-04T13:56:31.599Z,1.50
2018-01-04T13:59:00.575Z,2.13
2018-01-04T14:01:28.449Z,2.83
2018-01-04T14:03:56.419Z,3.47
2018-01-04T14:06:24.289Z,2.97
2018-01-04T14:08:52.661Z,2.97
2018-01-04T14:11:20.197Z,6.33
2018-01-04T14:13:47.729Z,3.47
2018-01-04T14:16:15.293Z,5.10
2018-01-04T14:18:42.818Z,4.67
2018-01-04T14:21:10.417Z,3.93
2018-01-04T14:23:38.917Z,8.50
2018-01-04T14:26:06.699Z,3.83
2018-01-04T14:28:35.100Z,5.97
2018-01-04T14:31:02.757Z,3.87
2018-01-04T14:33:31.803Z,6.57
2018-01-04T14:35:59.345Z,5.67
2018-01-04T14:38:26.894Z,6.80
2018-01-04T14:40:54.453Z,12.27
2018-01-04T14:43:22.038Z,14.60
2018-01-04T14:45:49.636Z,11.67
2018-01-04T14:48:17.202Z,12.57
2018-01-04T14:50:45.592Z,12.33
2018-01-04T14:53:13.149Z,20.23
2018-01-04T14:55:40.825Z,16.47
2018-01-04T14:58:08.398Z,15.40
2018-01-04T15:00:35.970Z,15.80
2018-01-04T15:03:03.909Z,15.67
2018-01-04T15:05:32.694Z,19.97
2018-01-04T15:08:01.166Z,14.77
2018-01-04T15:10:28.804Z,18.00
2018-01-04T15:12:57.219Z,9.37
2018-01-04T15:15:24.781Z,10.23
2018-01-04T15:17:52.616Z,12.57
2018-01-04T15:20:20.999Z,10.90
2018-01-04T15:22:48.584Z,9.37
2018-01-04T15:25:16.105Z,9.50
2018-01-04T15:27:44.402Z,12.10
2018-01-04T15:30:11.949Z,8.10
2018-01-04T15:32:40.279Z,11.70
2018-01-04T15:35:07.835Z,11.07
2018-01-04T15:37:35.681Z,9.70
2018-01-04T15:40:03.247Z,7.77
2018-01-04T15:42:30.893Z,11.87
2018-01-04T15:44:58.604Z,11.10
2018-01-04T15:47:26.231Z,14.37
2018-01-04T15:49:53.890Z,12.43
2018-01-04T15:52:22.007Z,7.77
2018-01-04T15:54:49.932Z,12.67
2018-01-04T15:57:17.911Z,12.80
2018-01-04T15:59:45.641Z,15.10
2018-01-04T16:02:13.338Z,13.97
2018-01-04T16:04:40.967Z,10.07
2018-01-04T16:07:08.699Z,8.87
2018-01-04T16:09:36.316Z,9.43
2018-01-04T16:12:03.881Z,14.37
2018-01-04T16:14:31.424Z,21.63
2018-01-04T16:16:59.018Z,11.47
2018-01-04T16:19:26.731Z,13.50
2018-01-04T16:21:54.730Z,13.30
2018-01-04T16:24:22.485Z,16.60
2018-01-04T16:26:50.543Z,14.77
2018-01-04T16:29:18.530Z,17.97
2018-01-04T16:31:46.404Z,20.63
2018-01-04T16:34:13.963Z,17.50
2018-01-04T16:36:42.056Z,18.60
2018-01-04T16:39:09.988Z,16.43
2018-01-04T16:41:37.557Z,21.43
2018-01-04T16:44:05.097Z,17.70
2018-01-04T16:46:32.654Z,36.73
2018-01-04T16:49:02.037Z,22.87
2018-01-04T16:51:31.404Z,27.40
2018-01-04T16:53:59.753Z,20.70
2018-01-04T16:56:27.868Z,27.20
2018-01-04T16:58:56.164Z,22.90
2018-01-04T17:01:25.233Z,22.73
2018-01-04T17:03:53.637Z,29.23
2018-01-04T17:06:22.691Z,29.23
2018-01-04T17:08:51.788Z,25.27
2018-01-04T17:11:19.961Z,25.73
2018-01-04T17:13:48.559Z,18.43
2018-01-04T17:16:18.786Z,34.23
2018-01-04T17:18:48.334Z,25.47
2018-01-04T17:21:18.188Z,27.03
2018-01-04T17:23:47.283Z,23.23
2018-01-04T17:26:16.691Z,29.20
2018-01-04T17:28:46.554Z,32.50
2018-01-04T17:31:15.885Z,26.30
2018-01-04T17:33:43.707Z,21.90
2018-01-04T17:36:13.871Z,24.70
2018-01-04T17:38:43.998Z,25.90
2018-01-04T17:41:13.065Z,33.50
2018-01-04T17:43:43.028Z,27.30
2018-01-04T17:46:15.028Z,32.27
2018-01-04T17:48:45.449Z,25.37
2018-01-04T17:51:15.270Z,25.27
2018-01-04T17:53:44.613Z,26.43
2018-01-04T17:56:13.913Z,25.03
2018-01-04T17:58:43.486Z,22.77
2018-01-04T18:01:12.012Z,26.23
2018-01-04T18:03:40.331Z,24.10
2018-01-04T18:06:09.724Z,27.33
2018-01-04T18:08:38.280Z,26.67
2018-01-04T18:11:06.173Z,29.33
2018-01-04T18:13:33.770Z,28.30
2018-01-04T18:16:01.326Z,19.23
2018-01-04T18:18:30.370Z,34.20
2018-01-04T18:20:57.937Z,26.37
2018-01-04T18:23:25.470Z,32.23
2018-01-04T18:25:54.627Z,31.20
2018-01-04T18:28:23.065Z,31.90
2018-01-04T18:30:51.446Z,27.70
2018-01-04T18:33:19.206Z,29.90
2018-01-04T18:35:48.380Z,29.23
2018-01-04T18:38:17.263Z,23.93
2018-01-04T18:40:46.963Z,30.80
2018-01-04T18:43:16.851Z,39.57
2018-01-04T18:45:44.502Z,31.10
2018-01-04T18:48:12.050Z,35.57
2018-01-04T18:50:40.184Z,29.90
2018-01-04T18:53:07.785Z,25.70
2018-01-04T18:55:36.342Z,26.23
2018-01-04T18:58:04.436Z,30.00
2018-01-04T19:00:32.888Z,28.07
2018-01-04T19:03:01.217Z,25.90
2018-01-04T19:05:28.782Z,24.97
2018-01-04T19:07:56.346Z,30.33
2018-01-04T19:10:24.048Z,34.40
2018-01-04T19:12:53.018Z,29.07
2018-01-04T19:15:21.485Z,30.73
2018-01-04T19:17:50.251Z,29.23
2018-01-04T19:20:18.221Z,33.70
2018-01-04T19:22:45.976Z,31.07
2018-01-04T19:25:14.440Z,30.03
2018-01-04T19:27:42.501Z,28.43
2018-01-04T19:30:11.113Z,25.67
2018-01-04T19:32:38.776Z,25.10
2018-01-04T19:35:06.301Z,22.83
2018-01-04T19:37:34.601Z,23.83
2018-01-04T19:40:02.566Z,24.40
2018-01-04T19:42:30.102Z,22.27
2018-01-04T19:44:58.390Z,24.63
2018-01-04T19:47:26.733Z,21.93
2018-01-04T19:49:55.090Z,18.47
2018-01-04T19:52:22.897Z,20.43
2018-01-04T19:54:52.046Z,14.97
2018-01-04T19:57:19.669Z,15.03
2018-01-04T19:59:47.790Z,16.90
2018-01-04T20:02:15.434Z,15.37
2018-01-04T20:04:43.063Z,19.67
2018-01-04T20:07:11.018Z,17.97
2018-01-04T20:09:39.404Z,15.17
2018-01-04T20:12:07.416Z,15.43
2018-01-04T20:14:34.941Z,15.87
2018-01-04T20:17:03.224Z,17.67
2018-01-04T20:19:31.534Z,17.23
2018-01-04T20:21:59.049Z,13.10
2018-01-04T20:24:26.599Z,15.53
2018-01-04T20:26:54.329Z,16.80
2018-01-04T20:29:21.920Z,20.13
2018-01-04T20:31:49.564Z,21.87
2018-01-04T20:34:18.221Z,21.17
2018-01-04T20:36:46.064Z,24.90
2018-01-04T20:39:13.720Z,15.33
2018-01-04T20:41:41.449Z,15.10
2018-01-04T20:44:09.197Z,15.93
2018-01-04T20:46:36.796Z,15.80
2018-01-04T20:49:04.368Z,14.70
2018-01-04T20:51:32.657Z,19.80
2018-01-04T20:54:00.221Z,16.63
2018-01-04T20:56:28.580Z,16.40
2018-01-04T20:58:56.147Z,11.53
2018-01-04T21:01:23.741Z,17.37
2018-01-04T21:03:51.384Z,15.57
2018-01-04T21:06:18.992Z,13.80
2018-01-04T21:08:47.028Z,16.63
2018-01-04T21:11:15.126Z,15.43
2018-01-04T21:13:42.789Z,12.80
2018-01-04T21:16:11.663Z,17.20
2018-01-04T21:18:39.916Z,20.60
2018-01-04T21:21:07.607Z,20.60
2018-01-04T21:23:35.142Z,15.40
2018-01-04T21:26:02.717Z,16.73
2018-01-04T21:28:30.233Z,15.27
2018-01-04T21:30:58.561Z,15.27
2018-01-04T21:33:26.160Z,10.03
2018-01-04T21:35:54.622Z,11.80
2018-01-04T21:38:22.362Z,21.57
2018-01-04T21:40:50.900Z,15.57
2018-01-04T21:43:19.311Z,19.47
2018-01-04T21:45:46.896Z,15.13
2018-01-04T21:48:14.486Z,15.20
2018-01-04T21:50:44.191Z,16.83
2018-01-04T21:53:12.284Z,16.40
2018-01-04T21:55:40.088Z,13.93
2018-01-04T21:58:07.607Z,12.23
2018-01-04T22:00:35.143Z,10.30
2018-01-04T22:03:02.701Z,11.63
2018-01-04T22:05:30.244Z,14.80
2018-01-04T22:07:57.770Z,16.07
2018-01-04T22:10:25.330Z,10.97
2018-01-04T22:12:53.383Z,16.50
2018-01-04T22:15:21.033Z,13.53
2018-01-04T22:17:48.760Z,12.00
2018-01-04T22:20:17.131Z,13.83
2018-01-04T22:22:45.267Z,10.90
2018-01-04T22:25:13.963Z,11.40
2018-01-04T22:27:42.173Z,12.97
2018-01-04T22:30:10.234Z,10.97
2018-01-04T22:32:37.771Z,12.17
2018-01-04T22:35:06.099Z,13.60
2018-01-04T22:37:33.624Z,11.03
2018-01-04T22:40:01.201Z,10.23
2018-01-04T22:42:28.721Z,13.87
2018-01-04T22:44:56.997Z,12.57
2018-01-04T22:47:25.453Z,15.37
2018-01-04T22:49:53.168Z,17.83
2018-01-04T22:52:20.774Z,12.07
2018-01-04T22:54:48.321Z,13.43
2018-01-04T22:57:16.077Z,13.00
2018-01-04T22:59:44.674Z,15.63
2018-01-04T23:02:13.065Z,16.73
2018-01-04T23:04:41.809Z,14.73
2018-01-04T23:07:11.141Z,13.43
2018-01-04T23:09:40.104Z,15.50
2018-01-04T23:12:07.674Z,15.40
2018-01-04T23:14:35.198Z,15.03
2018-01-04T23:17:03.510Z,14.37
2018-01-04T23:19:31.033Z,12.67
2018-01-04T23:21:59.334Z,17.00
2018-01-04T23:24:26.899Z,21.97
2018-01-04T23:26:55.090Z,14.57
2018-01-04T23:29:22.941Z,15.30
2018-01-04T23:31:50.810Z,18.77
2018-01-04T23:34:18.776Z,16.73
2018-01-04T23:36:46.646Z,12.47
2018-01-04T23:39:14.228Z,16.67
2018-01-04T23:41:42.295Z,19.17
2018-01-04T23:44:10.855Z,16.40
2018-01-04T23:46:38.631Z,15.27
2018-01-04T23:49:06.290Z,18.60
2018-01-04T23:51:33.833Z,16.10
2018-01-04T23:54:01.357Z,17.50
2018-01-04T23:56:28.881Z,21.07
2018-01-04T23:58:57.345Z,15.47
